ABQ722 OPIS-OPSD
Flight info
| Callsign | ABQ722 |
|---|---|
| Flight time | 0h 47m |
| Altitude | 35000 |
| Route | BOBAM DCT KAGLO J186 KAPMI J154 BUNGI J186 DELDA DCT BIREB DCT SANAM |
| Aircraft | A20N/M-SDE2E3FGHIRWXY/LB1 |
Departure
| Time | 2026-04-25 18:20 |
|---|---|
| Airport | Islamabad International Airport (OPIS) |
Arrival
| Time | 2026-04-25 19:08 |
|---|---|
| Airport | Skardu International Airport (OPSD) |
| Time | Latitude | Longitude | Altitude | Speed | Heading |
|---|---|---|---|---|---|
| 2026-04-25 17:53 | 33.55776 | 72.83193 | 1771 ft | 0 kts | 100° |
| 2026-04-25 18:05 | 33.55776 | 72.83191 | 1769 ft | 1 kts | 101° |
| 2026-04-25 18:05 | 33.55777 | 72.83182 | 1773 ft | 1 kts | 101° |
| 2026-04-25 18:06 | 33.55779 | 72.83173 | 1771 ft | 1 kts | 101° |
| 2026-04-25 18:06 | 33.55780 | 72.83164 | 1769 ft | 1 kts | 103° |
| 2026-04-25 18:06 | 33.55782 | 72.83155 | 1769 ft | 1 kts | 109° |
| 2026-04-25 18:06 | 33.55784 | 72.83146 | 1769 ft | 1 kts | 114° |
| 2026-04-25 18:07 | 33.55788 | 72.83138 | 1772 ft | 1 kts | 120° |
| 2026-04-25 18:07 | 33.55792 | 72.83130 | 1770 ft | 1 kts | 129° |
| 2026-04-25 18:07 | 33.55797 | 72.83123 | 1770 ft | 1 kts | 143° |
| 2026-04-25 18:07 | 33.55804 | 72.83117 | 1772 ft | 2 kts | 160° |
| 2026-04-25 18:08 | 33.55818 | 72.83113 | 1769 ft | 2 kts | 178° |
| 2026-04-25 18:08 | 33.55826 | 72.83113 | 1769 ft | 0 kts | 188° |
| 2026-04-25 18:10 | 33.55824 | 72.83112 | 1769 ft | 2 kts | 188° |
| 2026-04-25 18:10 | 33.55800 | 72.83106 | 1774 ft | 6 kts | 193° |
| 2026-04-25 18:11 | 33.55713 | 72.83085 | 1771 ft | 17 kts | 191° |
| 2026-04-25 18:11 | 33.55614 | 72.83001 | 1770 ft | 18 kts | 234° |
| 2026-04-25 18:11 | 33.55553 | 72.82895 | 1773 ft | 14 kts | 234° |
| 2026-04-25 18:11 | 33.55494 | 72.82796 | 1771 ft | 15 kts | 234° |
| 2026-04-25 18:12 | 33.55432 | 72.82687 | 1773 ft | 15 kts | 236° |
| 2026-04-25 18:12 | 33.55380 | 72.82627 | 1769 ft | 10 kts | 205° |
| 2026-04-25 18:12 | 33.55303 | 72.82612 | 1771 ft | 13 kts | 189° |
| 2026-04-25 18:12 | 33.55233 | 72.82597 | 1771 ft | 11 kts | 186° |
| 2026-04-25 18:13 | 33.55183 | 72.82658 | 1768 ft | 12 kts | 104° |
| 2026-04-25 18:13 | 33.55167 | 72.82771 | 1770 ft | 15 kts | 99° |
| 2026-04-25 18:13 | 33.55145 | 72.82903 | 1769 ft | 18 kts | 104° |
| 2026-04-25 18:14 | 33.55095 | 72.83232 | 1772 ft | 22 kts | 100° |
| 2026-04-25 18:14 | 33.55069 | 72.83421 | 1768 ft | 24 kts | 99° |
| 2026-04-25 18:14 | 33.55035 | 72.83625 | 1769 ft | 26 kts | 100° |
| 2026-04-25 18:14 | 33.55002 | 72.83842 | 1768 ft | 27 kts | 100° |
| 2026-04-25 18:15 | 33.54967 | 72.84073 | 1768 ft | 29 kts | 100° |
| 2026-04-25 18:15 | 33.54930 | 72.84315 | 1770 ft | 30 kts | 100° |
| 2026-04-25 18:15 | 33.54910 | 72.84443 | 1768 ft | 12 kts | 101° |
| 2026-04-25 18:15 | 33.54876 | 72.84539 | 1771 ft | 14 kts | 146° |
| 2026-04-25 18:16 | 33.54757 | 72.84527 | 1766 ft | 22 kts | 191° |
| 2026-04-25 18:16 | 33.54655 | 72.84503 | 1763 ft | 1 kts | 190° |
| 2026-04-25 18:16 | 33.54625 | 72.84496 | 1766 ft | 0 kts | 192° |
| 2026-04-25 18:18 | 33.54623 | 72.84496 | 1766 ft | 1 kts | 192° |
| 2026-04-25 18:18 | 33.54583 | 72.84486 | 1763 ft | 13 kts | 191° |
| 2026-04-25 18:19 | 33.54521 | 72.84425 | 1765 ft | 13 kts | 269° |
| 2026-04-25 18:19 | 33.54537 | 72.84303 | 1762 ft | 25 kts | 279° |
| 2026-04-25 18:19 | 33.54575 | 72.84040 | 1762 ft | 71 kts | 281° |
| 2026-04-25 18:19 | 33.54704 | 72.83216 | 1762 ft | 127 kts | 280° |
| 2026-04-25 18:20 | 33.54887 | 72.82019 | 1901 ft | 156 kts | 280° |
| 2026-04-25 18:20 | 33.55098 | 72.80700 | 2345 ft | 167 kts | 282° |
| 2026-04-25 18:20 | 33.55413 | 72.78786 | 2992 ft | 179 kts | 282° |
| 2026-04-25 18:20 | 33.55553 | 72.77800 | 3389 ft | 180 kts | 281° |
| 2026-04-25 18:21 | 33.55749 | 72.76228 | 3656 ft | 204 kts | 279° |
| 2026-04-25 18:21 | 33.55999 | 72.74397 | 3812 ft | 234 kts | 282° |
| 2026-04-25 18:21 | 33.56003 | 72.72376 | 4235 ft | 259 kts | 253° |
| 2026-04-25 18:21 | 33.54996 | 72.70512 | 4787 ft | 278 kts | 223° |
| 2026-04-25 18:22 | 33.53479 | 72.69064 | 5670 ft | 280 kts | 217° |
| 2026-04-25 18:22 | 33.52412 | 72.68138 | 6306 ft | 282 kts | 217° |
| 2026-04-25 18:22 | 33.50337 | 72.66220 | 7434 ft | 286 kts | 221° |
| 2026-04-25 18:22 | 33.48802 | 72.64659 | 8282 ft | 289 kts | 224° |
| 2026-04-25 18:23 | 33.47280 | 72.63085 | 9160 ft | 294 kts | 218° |
| 2026-04-25 18:23 | 33.45373 | 72.62104 | 9980 ft | 306 kts | 193° |
| 2026-04-25 18:23 | 33.43203 | 72.62119 | 10513 ft | 327 kts | 170° |
| 2026-04-25 18:23 | 33.41023 | 72.63182 | 10761 ft | 355 kts | 147° |
| 2026-04-25 18:24 | 33.39197 | 72.65298 | 11170 ft | 371 kts | 123° |
| 2026-04-25 18:24 | 33.38137 | 72.68117 | 11931 ft | 373 kts | 102° |
| 2026-04-25 18:24 | 33.37958 | 72.71199 | 12657 ft | 375 kts | 81° |
| 2026-04-25 18:24 | 33.38667 | 72.74197 | 13397 ft | 375 kts | 62° |
| 2026-04-25 18:25 | 33.39869 | 72.76931 | 14110 ft | 377 kts | 57° |
| 2026-04-25 18:25 | 33.41203 | 72.79650 | 14826 ft | 380 kts | 56° |
| 2026-04-25 18:25 | 33.42529 | 72.82423 | 15532 ft | 384 kts | 58° |
| 2026-04-25 18:25 | 33.43811 | 72.85241 | 16203 ft | 388 kts | 59° |
| 2026-04-25 18:26 | 33.45074 | 72.88127 | 16861 ft | 392 kts | 59° |
| 2026-04-25 18:26 | 33.46329 | 72.91053 | 17526 ft | 396 kts | 60° |
| 2026-04-25 18:26 | 33.47580 | 72.93990 | 18174 ft | 400 kts | 60° |
| 2026-04-25 18:26 | 33.48844 | 72.96966 | 18736 ft | 404 kts | 60° |
| 2026-04-25 18:27 | 33.50138 | 73.00008 | 19333 ft | 407 kts | 59° |
| 2026-04-25 18:27 | 33.51418 | 73.03014 | 19917 ft | 410 kts | 59° |
| 2026-04-25 18:27 | 33.52738 | 73.06096 | 20508 ft | 413 kts | 57° |
| 2026-04-25 18:27 | 33.54401 | 73.08857 | 21071 ft | 408 kts | 41° |
| 2026-04-25 18:28 | 33.56578 | 73.10922 | 21689 ft | 401 kts | 25° |
| 2026-04-25 18:28 | 33.59123 | 73.12188 | 22275 ft | 394 kts | 9° |
| 2026-04-25 18:28 | 33.61824 | 73.12562 | 22892 ft | 388 kts | 354° |
| 2026-04-25 18:29 | 33.67256 | 73.12298 | 24084 ft | 391 kts | 353° |
| 2026-04-25 18:29 | 33.69947 | 73.12173 | 24605 ft | 393 kts | 353° |
| 2026-04-25 18:30 | 33.78249 | 73.11810 | 26115 ft | 400 kts | 353° |
| 2026-04-25 18:30 | 33.81010 | 73.11691 | 26561 ft | 404 kts | 352° |
| 2026-04-25 18:30 | 33.83857 | 73.11568 | 27065 ft | 405 kts | 352° |
| 2026-04-25 18:30 | 33.86660 | 73.11449 | 27548 ft | 407 kts | 352° |
| 2026-04-25 18:31 | 33.89491 | 73.11329 | 27994 ft | 409 kts | 352° |
| 2026-04-25 18:31 | 33.92371 | 73.11203 | 28383 ft | 412 kts | 352° |
| 2026-04-25 18:31 | 33.95228 | 73.11079 | 28854 ft | 413 kts | 352° |
| 2026-04-25 18:31 | 33.98100 | 73.10953 | 29256 ft | 415 kts | 351° |
| 2026-04-25 18:32 | 34.01018 | 73.10824 | 29669 ft | 417 kts | 351° |
| 2026-04-25 18:32 | 34.03903 | 73.10697 | 30071 ft | 419 kts | 351° |
| 2026-04-25 18:32 | 34.06812 | 73.10569 | 30429 ft | 420 kts | 351° |
| 2026-04-25 18:32 | 34.09749 | 73.10439 | 30770 ft | 421 kts | 351° |
| 2026-04-25 18:33 | 34.12678 | 73.10312 | 31199 ft | 421 kts | 351° |
| 2026-04-25 18:33 | 34.15588 | 73.10186 | 31756 ft | 417 kts | 350° |
| 2026-04-25 18:33 | 34.18462 | 73.10062 | 32319 ft | 413 kts | 350° |
| 2026-04-25 18:33 | 34.21343 | 73.09937 | 32907 ft | 408 kts | 349° |
| 2026-04-25 18:34 | 34.24144 | 73.09815 | 33506 ft | 403 kts | 349° |
| 2026-04-25 18:34 | 34.26915 | 73.09696 | 34087 ft | 398 kts | 349° |
| 2026-04-25 18:34 | 34.29702 | 73.09570 | 34390 ft | 398 kts | 349° |
| 2026-04-25 18:34 | 34.32442 | 73.09445 | 34657 ft | 399 kts | 349° |
| 2026-04-25 18:35 | 34.35222 | 73.09318 | 34915 ft | 400 kts | 349° |
| 2026-04-25 18:35 | 34.38007 | 73.09193 | 35018 ft | 400 kts | 349° |
| 2026-04-25 18:35 | 34.43557 | 73.08949 | 35032 ft | 398 kts | 349° |
| 2026-04-25 18:36 | 34.49116 | 73.08718 | 35048 ft | 401 kts | 352° |
| 2026-04-25 18:36 | 34.51944 | 73.09022 | 35049 ft | 414 kts | 1° |
| 2026-04-25 18:36 | 34.54751 | 73.09931 | 35058 ft | 427 kts | 10° |
| 2026-04-25 18:37 | 34.57480 | 73.11467 | 35068 ft | 442 kts | 20° |
| 2026-04-25 18:37 | 34.60048 | 73.13669 | 35076 ft | 458 kts | 31° |
| 2026-04-25 18:37 | 34.62288 | 73.16479 | 35089 ft | 474 kts | 42° |
| 2026-04-25 18:37 | 34.64149 | 73.19865 | 35102 ft | 485 kts | 49° |
| 2026-04-25 18:38 | 34.67616 | 73.26841 | 35139 ft | 484 kts | 49° |
| 2026-04-25 18:38 | 34.71122 | 73.33866 | 35157 ft | 485 kts | 49° |
| 2026-04-25 18:39 | 34.74613 | 73.40863 | 35187 ft | 483 kts | 50° |
| 2026-04-25 18:39 | 34.78412 | 73.47442 | 35221 ft | 470 kts | 39° |
| 2026-04-25 18:40 | 34.83106 | 73.52786 | 35241 ft | 457 kts | 27° |
| 2026-04-25 18:40 | 34.88119 | 73.57474 | 35263 ft | 454 kts | 28° |
| 2026-04-25 18:41 | 34.93143 | 73.62205 | 35287 ft | 456 kts | 28° |
| 2026-04-25 18:41 | 34.98144 | 73.66916 | 35295 ft | 456 kts | 28° |
| 2026-04-25 18:42 | 35.01520 | 73.70104 | 35303 ft | 458 kts | 28° |
| 2026-04-25 18:42 | 35.08225 | 73.76443 | 35306 ft | 459 kts | 28° |
| 2026-04-25 18:43 | 35.13244 | 73.81199 | 35279 ft | 456 kts | 28° |
| 2026-04-25 18:43 | 35.18274 | 73.85968 | 35280 ft | 459 kts | 28° |
| 2026-04-25 18:44 | 35.23327 | 73.90766 | 35272 ft | 460 kts | 29° |
| 2026-04-25 18:44 | 35.28327 | 73.95528 | 35262 ft | 459 kts | 30° |
| 2026-04-25 18:45 | 35.33375 | 74.00337 | 35260 ft | 461 kts | 29° |
| 2026-04-25 18:45 | 35.38444 | 74.05186 | 35221 ft | 460 kts | 31° |
| 2026-04-25 18:46 | 35.40761 | 74.07907 | 34930 ft | 469 kts | 41° |
| 2026-04-25 18:46 | 35.42765 | 74.11105 | 34432 ft | 477 kts | 50° |
| 2026-04-25 18:46 | 35.44404 | 74.14702 | 33789 ft | 482 kts | 57° |
| 2026-04-25 18:46 | 35.45922 | 74.18354 | 33098 ft | 481 kts | 57° |
| 2026-04-25 18:47 | 35.47435 | 74.21959 | 32440 ft | 479 kts | 57° |
| 2026-04-25 18:47 | 35.48962 | 74.25583 | 31786 ft | 478 kts | 58° |
| 2026-04-25 18:47 | 35.50502 | 74.29233 | 31047 ft | 477 kts | 58° |
| 2026-04-25 18:47 | 35.52017 | 74.32829 | 30411 ft | 475 kts | 59° |
| 2026-04-25 18:48 | 35.53538 | 74.36454 | 29799 ft | 470 kts | 60° |
| 2026-04-25 18:48 | 35.55001 | 74.39948 | 29200 ft | 465 kts | 60° |
| 2026-04-25 18:48 | 35.56477 | 74.43479 | 28597 ft | 459 kts | 60° |
| 2026-04-25 18:48 | 35.57929 | 74.46955 | 28020 ft | 454 kts | 60° |
| 2026-04-25 18:49 | 35.59373 | 74.50415 | 27440 ft | 450 kts | 60° |
| 2026-04-25 18:49 | 35.60783 | 74.53798 | 26867 ft | 446 kts | 60° |
| 2026-04-25 18:49 | 35.62189 | 74.57171 | 26305 ft | 442 kts | 61° |
| 2026-04-25 18:49 | 35.63589 | 74.60538 | 25740 ft | 438 kts | 60° |
| 2026-04-25 18:50 | 35.65026 | 74.63810 | 25194 ft | 433 kts | 59° |
| 2026-04-25 18:50 | 35.66502 | 74.67018 | 24694 ft | 429 kts | 58° |
| 2026-04-25 18:50 | 35.67956 | 74.70157 | 24198 ft | 426 kts | 58° |
| 2026-04-25 18:50 | 35.69418 | 74.73330 | 23665 ft | 422 kts | 59° |
| 2026-04-25 18:51 | 35.70566 | 74.76617 | 23083 ft | 420 kts | 73° |
| 2026-04-25 18:51 | 35.70799 | 74.77808 | 22884 ft | 419 kts | 78° |
| 2026-04-25 18:51 | 35.70673 | 74.83676 | 21980 ft | 413 kts | 103° |
| 2026-04-25 18:51 | 35.69861 | 74.87042 | 21445 ft | 408 kts | 108° |
| 2026-04-25 18:52 | 35.68941 | 74.90348 | 20926 ft | 404 kts | 109° |
| 2026-04-25 18:52 | 35.68054 | 74.93590 | 20416 ft | 400 kts | 108° |
| 2026-04-25 18:52 | 35.67210 | 74.96829 | 19922 ft | 396 kts | 107° |
| 2026-04-25 18:52 | 35.66405 | 75.00046 | 19514 ft | 389 kts | 107° |
| 2026-04-25 18:53 | 35.65642 | 75.03159 | 19387 ft | 374 kts | 107° |
| 2026-04-25 18:53 | 35.64912 | 75.06165 | 19352 ft | 349 kts | 107° |
| 2026-04-25 18:53 | 35.64238 | 75.08947 | 19363 ft | 337 kts | 107° |
| 2026-04-25 18:53 | 35.63559 | 75.11742 | 19355 ft | 343 kts | 107° |
| 2026-04-25 18:54 | 35.62200 | 75.17327 | 19350 ft | 341 kts | 107° |
| 2026-04-25 18:54 | 35.61519 | 75.20119 | 19355 ft | 341 kts | 107° |
| 2026-04-25 18:54 | 35.60826 | 75.22936 | 19354 ft | 342 kts | 107° |
| 2026-04-25 18:55 | 35.60137 | 75.25727 | 19352 ft | 341 kts | 107° |
| 2026-04-25 18:55 | 35.59170 | 75.28357 | 19349 ft | 340 kts | 126° |
| 2026-04-25 18:55 | 35.57576 | 75.30521 | 19187 ft | 339 kts | 137° |
| 2026-04-25 18:55 | 35.55849 | 75.32430 | 18786 ft | 334 kts | 139° |
| 2026-04-25 18:56 | 35.54067 | 75.34242 | 18335 ft | 326 kts | 143° |
| 2026-04-25 18:56 | 35.52263 | 75.35851 | 17869 ft | 318 kts | 146° |
| 2026-04-25 18:56 | 35.50470 | 75.37373 | 17409 ft | 312 kts | 146° |
| 2026-04-25 18:56 | 35.48707 | 75.38867 | 16953 ft | 306 kts | 146° |
| 2026-04-25 18:57 | 35.47526 | 75.39866 | 16644 ft | 302 kts | 146° |
| 2026-04-25 18:57 | 35.45826 | 75.41304 | 16205 ft | 296 kts | 146° |
| 2026-04-25 18:57 | 35.44157 | 75.42715 | 15929 ft | 284 kts | 146° |
| 2026-04-25 18:57 | 35.43083 | 75.43623 | 15626 ft | 284 kts | 146° |
| 2026-04-25 18:58 | 35.40895 | 75.45469 | 15004 ft | 290 kts | 146° |
| 2026-04-25 18:58 | 35.37510 | 75.48317 | 14043 ft | 294 kts | 146° |
| 2026-04-25 18:58 | 35.35844 | 75.49715 | 13530 ft | 290 kts | 146° |
| 2026-04-25 18:59 | 35.32554 | 75.52426 | 13008 ft | 275 kts | 149° |
| 2026-04-25 18:59 | 35.29337 | 75.54633 | 12702 ft | 259 kts | 150° |
| 2026-04-25 19:00 | 35.27309 | 75.58050 | 12019 ft | 256 kts | 96° |
| 2026-04-25 19:00 | 35.27241 | 75.60206 | 11719 ft | 254 kts | 83° |
| 2026-04-25 19:01 | 35.28077 | 75.64223 | 11469 ft | 232 kts | 71° |
| 2026-04-25 19:01 | 35.28898 | 75.65882 | 11252 ft | 225 kts | 39° |
| 2026-04-25 19:01 | 35.30268 | 75.66699 | 10983 ft | 218 kts | 5° |
| 2026-04-25 19:01 | 35.31656 | 75.66421 | 10909 ft | 198 kts | 330° |
| 2026-04-25 19:02 | 35.33383 | 75.63902 | 10114 ft | 202 kts | 297° |
| 2026-04-25 19:02 | 35.34006 | 75.62312 | 9642 ft | 205 kts | 290° |
| 2026-04-25 19:02 | 35.34453 | 75.60755 | 9594 ft | 186 kts | 289° |
| 2026-04-25 19:03 | 35.35104 | 75.58443 | 9410 ft | 169 kts | 289° |
| 2026-04-25 19:03 | 35.35776 | 75.56693 | 9408 ft | 171 kts | 305° |
| 2026-04-25 19:03 | 35.36616 | 75.55665 | 9417 ft | 171 kts | 314° |
| 2026-04-25 19:04 | 35.38168 | 75.53702 | 9271 ft | 150 kts | 313° |
| 2026-04-25 19:04 | 35.38903 | 75.52740 | 8913 ft | 154 kts | 315° |
| 2026-04-25 19:05 | 35.40621 | 75.51365 | 8479 ft | 146 kts | 328° |
| 2026-04-25 19:05 | 35.41936 | 75.49676 | 8334 ft | 148 kts | 258° |
| 2026-04-25 19:05 | 35.41225 | 75.48840 | 8085 ft | 152 kts | 187° |
| 2026-04-25 19:06 | 35.40248 | 75.49218 | 7991 ft | 150 kts | 146° |
| 2026-04-25 19:06 | 35.38431 | 75.50597 | 7887 ft | 153 kts | 151° |
| 2026-04-25 19:06 | 35.37557 | 75.51309 | 7739 ft | 153 kts | 145° |
| 2026-04-25 19:07 | 35.35779 | 75.52719 | 7447 ft | 151 kts | 148° |
| 2026-04-25 19:07 | 35.34891 | 75.53409 | 7376 ft | 151 kts | 148° |
| 2026-04-25 19:08 | 35.33524 | 75.54477 | 7384 ft | 72 kts | 147° |
| 2026-04-25 19:08 | 35.33331 | 75.54621 | 7385 ft | 8 kts | 170° |
| 2026-04-25 19:09 | 35.33198 | 75.54396 | 7385 ft | 15 kts | 282° |
| 2026-04-25 19:09 | 35.33217 | 75.54365 | 7387 ft | 0 kts | 325° |
| 2026-04-25 19:10 | 35.33222 | 75.54354 | 7385 ft | 1 kts | 277° |
| 2026-04-25 19:10 | 35.33206 | 75.54338 | 7386 ft | 7 kts | 225° |
| 2026-04-25 19:10 | 35.33158 | 75.54268 | 7386 ft | 15 kts | 236° |
| 2026-04-25 19:11 | 35.33094 | 75.54148 | 7388 ft | 18 kts | 237° |
| 2026-04-25 19:11 | 35.33020 | 75.54013 | 7387 ft | 20 kts | 236° |
| 2026-04-25 19:11 | 35.32956 | 75.53901 | 7384 ft | 0 kts | 218° |